Northeast Gulf - northwestern half: Past 24 Hour Conditions

 

Natashquan Airport

01:00 AM EDT 25 April 2014
This table is a summary of hourly weather conditions for the past 24 hours.
Date / Time
(EDT)
Wind(knots) Conditions Visibility(km) Pressure(kPa) Air tempC) Relative humidity(%) Dew pointC) Wind Chill
25 April 2014
1:00 ENE 9 Cloudy 16 101.2 0 81 -3 -5
0:00 NE 12 Cloudy 16 101.2 0 81 -3 -6
24 April 2014
23:00 NE 9 Clear 16 101.2 -1 83 -3 -6
22:00 ENE 12 gust 19 Clear 16 101.2 0 79 -3 -6
21:00 ENE 13 Clear 16 101.2 0 80 -3 *
20:00 ENE 15 gust 21 Mostly Cloudy 16 101.2 1 79 -3 *
19:00 E 15 gust 21 Mainly Sunny 16 101.2 1 75 -3 *
18:00 ENE 18 Sunny 16 101.1 2 71 -3 *
17:00 ENE 18 gust 23 Sunny 16 101.0 2 70 -3 *
16:00 ENE 18 gust 26 Sunny 16 101.1 3 67 -3 *
15:00 ENE 18 gust 26 Mainly Sunny 16 101.1 3 63 -3 *
14:00 ENE 17 gust 26 Sunny 16 101.1 3 66 -3 *
13:00 ENE 19 gust 31 Sunny 16 101.1 3 66 -3 *
12:00 ENE 21 gust 30 Sunny 16 101.1 2 67 -3 *
11:00 ENE 22 gust 27 Mainly Sunny 16 101.1 2 68 -4 *
10:00 ENE 24 gust 29 Mainly Sunny 16 101.1 1 68 -4 *
9:00 ENE 18 gust 27 Mainly Sunny 16 101.1 1 72 -3 *
8:00 ENE 23 gust 29 Sunny 16 101.0 0 74 -4 *
7:00 ENE 19 gust 24 Sunny 16 101.0 0 77 -4 -7
6:00 ENE 22 Cloudy 16 100.9 -1 79 -4 -8
5:00 ENE 19 gust 29 Cloudy 16 100.9 -1 79 -4 -8
4:00 ENE 16 gust 23 Cloudy 16 100.8 0 80 -3 -7
3:00 ENE 15 gust 23 Cloudy 16 100.8 0 83 -3 -6
2:00 ENE 15 gust 22 Light Snow 16 100.8 0 86 -2 -6
1:00 ENE 19 Light Rain 16 100.8 0 87 -2 -7
 
Map of Atlantic - Newfoundland marine weather areas Southwestern Grand Banks - 44138 Banquereau - 44139 Tail of the Bank - 44140 Nickerson Bank - 44251 Northeast Burgeo Bank - 44255 Blanc-Sablon Airport Cap Whittle Chevery Natashquan Airport Heath Point Miscou Island Grand Étang Ingonish Beach North Mountain St.Paul Island J.A. Douglas McCurdy Sydney Airport Charlottetown Airport East Point North Cape Argentia Bonavista Burgeo Cape Race Corner Brook Daniel's Harbour Englee Ferolle Point La Scie Port aux Basques Rocky Harbour Sagona Island St. Anthony Airport St. John's Int'l Airport St. Lawrence Stephenville Airport Twillingate Winterland Wreckhouse Cartwright Airport Mary's Harbour Grates Cove Pool's Island Marticot Island Long Pond Îles de la Madeleine Airport
Legend: buoyBuoy land stationLand Station